Time;durP1;ratioP1;P1;durP2;ratioP2;P2;SDS_P1;SDS_P2;PMS_P1;PMS_P2;Temp;Humidity;BMP_temperature;BMP_pressure;BME280_temperature;BME280_humidity;BME280_pressure;Samples;Min_cycle;Max_cycle;Signal;HPM_P1;HPM_P2
2022/04/29 00:00:06;;;;;;;0.30;0.20;;;;;;;9.48;93.07;101352.84;5057948;28;20523;-54
2022/04/29 00:02:34;;;;;;;0.30;0.20;;;;;;;9.34;93.96;101353.84;5058010;28;20540;-54
2022/04/29 00:05:00;;;;;;;0.50;0.50;;;;;;;9.23;94.67;101360.97;5045947;28;20449;-54
2022/04/29 00:07:27;;;;;;;0.30;0.20;;;;;;;9.55;93.61;101358.97;5058040;28;20798;-54
2022/04/29 00:09:54;;;;;;;0.30;0.20;;;;;;;9.47;93.96;101356.38;5064252;28;20987;-54
2022/04/29 00:12:21;;;;;;;1.20;1.20;;;;;;;9.33;94.14;101352.06;5064684;28;20454;-54
2022/04/29 00:14:47;;;;;;;9.67;2.20;;;;;;;9.34;94.23;101354.72;5058788;28;20477;-54
2022/04/29 00:17:14;;;;;;;0.30;0.20;;;;;;;9.24;94.37;101358.31;5057989;28;20486;-54
2022/04/29 00:19:41;;;;;;;0.87;0.87;;;;;;;9.05;95.63;101356.66;5064422;28;20471;-54
2022/04/29 00:22:08;;;;;;;0.30;0.20;;;;;;;9.13;96.37;101352.16;5064779;28;20490;-54
2022/04/29 00:24:34;;;;;;;0.30;0.20;;;;;;;9.14;95.24;101354.81;5059244;28;20480;-54
2022/04/29 00:27:01;;;;;;;0.40;0.30;;;;;;;8.94;96.54;101353.16;5057851;28;20477;-54
2022/04/29 00:29:27;;;;;;;0.50;0.47;;;;;;;9.13;95.65;101344.22;5053873;28;20469;-54
2022/04/29 00:31:54;;;;;;;0.30;0.20;;;;;;;9.11;95.77;101346.88;5057950;28;20477;-54
2022/04/29 00:34:20;;;;;;;1.23;1.13;;;;;;;8.77;97.56;101347.91;5063678;28;20457;-54
2022/04/29 00:36:47;;;;;;;0.80;0.80;;;;;;;8.84;96.75;101341.72;5065660;28;20521;-54
2022/04/29 00:39:14;;;;;;;0.30;0.20;;;;;;;8.80;97.26;101340.84;5062629;28;20445;-54
2022/04/29 00:41:41;;;;;;;0.30;0.20;;;;;;;8.81;97.14;101334.66;5061234;28;20499;-54
2022/04/29 00:44:09;;;;;;;0.37;0.30;;;;;;;8.80;96.73;101330.25;5066956;28;20788;-54
2022/04/29 00:46:39;;;;;;;0.30;0.20;;;;;;;8.85;96.89;101324.91;5068342;28;20515;-54
2022/04/29 00:49:10;;;;;;;0.30;0.20;;;;;;;9.13;96.13;101329.19;5063382;28;20479;-54
2022/04/29 00:51:38;;;;;;;1.23;1.23;;;;;;;9.08;95.70;101328.34;5061297;28;20446;-54
2022/04/29 00:54:08;;;;;;;0.43;0.43;;;;;;;8.93;95.41;101324.91;5063554;28;20469;-54
2022/04/29 00:56:38;;;;;;;0.33;0.27;;;;;;;8.80;97.11;101330.25;5059214;28;20446;-54
2022/04/29 00:59:15;;;;;;;0.30;0.20;;;;;;;8.86;96.01;101324.03;5063299;28;20524;-54
2022/04/29 01:01:45;;;;;;;0.30;0.20;;;;;;;8.82;96.76;101324.94;5067922;28;20489;-54
2022/04/29 01:04:24;;;;;;;0.30;0.20;;;;;;;8.66;97.96;101325.91;5068025;28;20454;-54
2022/04/29 01:06:51;;;;;;;0.30;0.20;;;;;;;8.92;96.08;101316.06;5062025;28;20446;-54
2022/04/29 01:09:17;;;;;;;0.30;0.20;;;;;;;8.55;97.13;101305.63;5060846;28;20451;-54
2022/04/29 01:11:44;;;;;;;0.70;0.70;;;;;;;8.57;97.37;101305.59;5066187;28;20471;-54
2022/04/29 01:14:11;;;;;;;0.30;0.20;;;;;;;8.59;97.75;101303.81;5068009;28;20450;-54
2022/04/29 01:16:40;;;;;;;0.30;0.20;;;;;;;8.71;97.91;101302.91;5063833;28;20500;-54
2022/04/29 01:19:06;;;;;;;0.30;0.20;;;;;;;8.80;96.10;101300.22;5060545;28;20457;-54
2022/04/29 01:21:33;;;;;;;0.30;0.20;;;;;;;8.60;96.74;101301.16;5064622;28;20498;-54
2022/04/29 01:23:59;;;;;;;0.40;0.30;;;;;;;8.58;96.73;101305.59;5065305;28;20520;-54
2022/04/29 01:26:26;;;;;;;0.30;0.20;;;;;;;8.55;97.40;101315.34;5064189;28;21014;-54
2022/04/29 01:28:56;;;;;;;0.30;0.20;;;;;;;8.50;97.60;101323.31;5067587;28;20451;-54
2022/04/29 01:31:23;;;;;;;1.37;0.40;;;;;;;8.43;99.20;101318.91;5064825;28;20490;-54
2022/04/29 01:33:51;;;;;;;0.30;0.20;;;;;;;8.45;97.83;101310.94;5060911;28;20450;-54
2022/04/29 01:36:18;;;;;;;0.30;0.20;;;;;;;8.33;98.58;101314.47;5063652;28;20446;-54
2022/04/29 01:38:44;;;;;;;0.40;0.33;;;;;;;8.25;98.52;101311.88;5067799;28;20451;-54
2022/04/29 01:41:13;;;;;;;0.30;0.20;;;;;;;8.16;99.17;101314.53;5065064;28;20542;-54
2022/04/29 01:43:39;;;;;;;0.40;0.30;;;;;;;8.16;98.91;101314.53;5060728;28;20819;-54
2022/04/29 01:46:06;;;;;;;0.30;0.20;;;;;;;8.15;98.12;101310.13;5062683;28;20512;-54
2022/04/29 01:48:33;;;;;;;0.30;0.20;;;;;;;8.07;98.66;101305.72;5066992;28;20458;-54
2022/04/29 01:50:59;;;;;;;0.60;0.60;;;;;;;8.17;98.50;101310.09;5054490;28;20478;-52
2022/04/29 01:53:26;;;;;;;0.30;0.20;;;;;;;8.13;97.29;101306.59;5067222;28;20453;-53
2022/04/29 01:55:52;;;;;;;0.33;0.23;;;;;;;8.01;97.45;101304.84;5054402;28;20820;-52
2022/04/29 01:58:19;;;;;;;0.30;0.20;;;;;;;7.90;97.56;101303.97;5067542;28;20458;-52
2022/04/29 02:00:45;;;;;;;0.30;0.20;;;;;;;7.89;99.00;101298.69;5065729;28;20519;-52
2022/04/29 02:03:12;;;;;;;0.30;0.20;;;;;;;7.94;99.13;101300.44;5060468;28;20519;-52
2022/04/29 02:05:39;;;;;;;2.30;0.83;;;;;;;7.98;99.10;101296.03;5062215;28;20482;-52
2022/04/29 02:08:10;;;;;;;0.30;0.20;;;;;;;7.89;98.57;101302.22;5067248;28;20454;-52
2022/04/29 02:10:36;;;;;;;0.40;0.40;;;;;;;7.82;99.57;101305.78;5054388;28;20490;-52
2022/04/29 02:13:03;;;;;;;0.30;0.20;;;;;;;7.97;99.02;101295.16;5066950;28;20443;-53
2022/04/29 02:15:30;;;;;;;0.30;0.20;;;;;;;7.81;98.24;101301.38;5066882;28;20483;-52
2022/04/29 02:17:57;;;;;;;0.30;0.20;;;;;;;7.91;98.48;101302.22;5045975;28;20454;-52
2022/04/29 02:20:24;;;;;;;0.30;0.20;;;;;;;7.93;97.12;101295.16;5042892;28;20593;-52
2022/04/29 02:22:53;;;;;;;0.40;0.30;;;;;;;7.73;98.71;101298.72;5060506;28;20486;-52
2022/04/29 02:25:20;;;;;;;0.30;0.20;;;;;;;7.94;97.94;101297.78;5067334;28;20469;-52
2022/04/29 02:27:47;;;;;;;0.40;0.40;;;;;;;7.21;100.00;101297.81;5060442;28;20874;-52
2022/04/29 02:30:13;;;;;;;0.30;0.20;;;;;;;7.39;100.00;101302.22;5060587;28;20474;-52
2022/04/29 02:32:41;;;;;;;0.30;0.17;;;;;;;7.46;100.00;101300.47;5066061;28;20447;-52
2022/04/29 02:35:08;;;;;;;0.77;0.77;;;;;;;7.27;100.00;101303.13;5066432;28;20959;-52
2022/04/29 02:37:35;;;;;;;0.30;0.20;;;;;;;7.19;100.00;101303.97;5061972;28;20454;-53
2022/04/29 02:40:03;;;;;;;0.70;0.70;;;;;;;7.22;100.00;101299.56;5060027;28;20478;-52
2022/04/29 02:42:30;;;;;;;0.30;0.20;;;;;;;7.45;100.00;101301.38;5064719;28;20482;-53
2022/04/29 02:44:56;;;;;;;0.30;0.20;;;;;;;7.46;100.00;101296.06;5066261;28;20486;-53
2022/04/29 02:47:23;;;;;;;0.30;0.20;;;;;;;7.30;100.00;101291.66;5062038;28;20446;-53
2022/04/29 02:49:50;;;;;;;0.30;0.20;;;;;;;7.40;100.00;101294.31;5059016;28;20509;-53
2022/04/29 02:52:16;;;;;;;0.30;0.20;;;;;;;7.39;100.00;101289.88;5063889;28;20943;-53
2022/04/29 02:54:43;;;;;;;0.30;0.20;;;;;;;7.40;100.00;101289.03;5054089;28;20459;-54
2022/04/29 02:57:09;;;;;;;0.30;0.20;;;;;;;7.54;100.00;101288.13;5062237;28;20457;-53
2022/04/29 02:59:37;;;;;;;0.30;0.20;;;;;;;7.51;100.00;101289.00;5058909;28;20474;-53
2022/04/29 03:02:04;;;;;;;1.10;1.10;;;;;;;7.26;100.00;101292.50;5062830;28;20585;-53
2022/04/29 03:04:31;;;;;;;0.30;0.20;;;;;;;7.28;100.00;101282.84;5066116;28;20951;-53
2022/04/29 03:06:58;;;;;;;0.30;0.20;;;;;;;7.14;100.00;101288.13;5062686;28;20450;-53
2022/04/29 03:09:25;;;;;;;0.30;0.20;;;;;;;7.06;100.00;101280.16;5059046;28;20470;-53
2022/04/29 03:11:52;;;;;;;0.30;0.20;;;;;;;7.31;100.00;101280.19;5062699;28;20443;-53
2022/04/29 03:14:18;;;;;;;0.30;0.20;;;;;;;7.14;100.00;101282.81;5066275;28;20472;-53
2022/04/29 03:16:49;;;;;;;0.30;0.20;;;;;;;7.18;100.00;101279.31;5063586;28;20441;-53
2022/04/29 03:19:15;;;;;;;0.30;0.30;;;;;;;7.23;100.00;101281.94;5059296;28;20515;-53
2022/04/29 03:21:42;;;;;;;0.30;0.20;;;;;;;7.07;100.00;101278.41;5061017;28;20513;-53
2022/04/29 03:24:09;;;;;;;0.30;0.20;;;;;;;7.00;100.00;101276.63;5065637;28;20479;-53
2022/04/29 03:26:36;;;;;;;0.30;0.20;;;;;;;7.05;100.00;101277.50;5060765;28;20936;-53
2022/04/29 03:29:02;;;;;;;0.80;0.80;;;;;;;7.08;100.00;101277.50;5066009;28;20509;-54
2022/04/29 03:31:29;;;;;;;0.30;0.20;;;;;;;7.02;100.00;101272.22;5064695;28;20453;-54
2022/04/29 03:33:56;;;;;;;0.30;0.20;;;;;;;7.01;100.00;101274.00;5058799;28;20458;-54
2022/04/29 03:36:22;;;;;;;0.30;0.20;;;;;;;6.96;100.00;101273.09;5060218;28;20496;-53
2022/04/29 03:38:49;;;;;;;0.30;0.20;;;;;;;6.92;100.00;101273.09;5065562;28;20451;-53
2022/04/29 03:41:15;;;;;;;0.40;0.40;;;;;;;6.90;100.00;101270.44;5064850;28;20983;-54
2022/04/29 03:43:42;;;;;;;2.83;1.40;;;;;;;7.10;100.00;101268.69;5058718;28;20446;-55
2022/04/29 03:46:09;;;;;;;0.30;0.20;;;;;;;6.98;100.00;101270.44;5059508;28;20485;-54
2022/04/29 03:51:21;;;;;;;0.30;0.20;;;;;;;7.00;100.00;101271.34;5043338;28;20503;-54
2022/04/29 03:53:50;;;;;;;0.30;0.20;;;;;;;6.93;100.00;101273.09;5036822;28;20505;-54
2022/04/29 03:56:17;;;;;;;0.30;0.20;;;;;;;6.92;100.00;101266.03;5053375;28;20443;-52
2022/04/29 03:58:44;;;;;;;0.30;0.20;;;;;;;7.02;100.00;101267.81;5061848;28;20446;-52
2022/04/29 04:01:12;;;;;;;0.87;0.87;;;;;;;6.75;100.00;101268.66;5058845;28;20471;-52
2022/04/29 04:03:40;;;;;;;0.40;0.20;;;;;;;6.74;100.00;101269.53;5061348;28;20493;-52
2022/04/29 04:08:52;;;;;;;0.30;0.20;;;;;;;6.78;100.00;101270.41;5060620;28;20454;-52
2022/04/29 04:11:19;;;;;;;0.30;0.20;;;;;;;6.76;100.00;101275.69;5067710;28;20889;-53
2022/04/29 04:13:46;;;;;;;1.00;1.00;;;;;;;6.78;100.00;101284.50;5068805;28;20457;-52
2022/04/29 04:16:13;;;;;;;0.30;0.20;;;;;;;6.81;100.00;101279.22;5043899;28;20983;-53
2022/04/29 04:18:39;;;;;;;0.40;0.40;;;;;;;6.77;100.00;101282.75;5068574;28;20449;-53
2022/04/29 04:21:06;;;;;;;0.43;0.40;;;;;;;6.91;100.00;101287.19;5062403;28;20470;-53
2022/04/29 04:23:33;;;;;;;1.17;1.17;;;;;;;6.80;100.00;101281.84;5070936;28;20493;-53
2022/04/29 04:25:59;;;;;;;0.40;0.40;;;;;;;6.68;100.00;101284.47;5068867;28;20446;-52
2022/04/29 04:28:26;;;;;;;0.30;0.20;;;;;;;6.97;100.00;101289.81;5069520;28;20946;-52
2022/04/29 04:30:53;;;;;;;0.30;0.20;;;;;;;7.04;100.00;101291.63;5048987;28;20523;-52
2022/04/29 04:33:20;;;;;;;3.90;0.80;;;;;;;6.90;100.00;101298.63;5062260;28;20569;-52
2022/04/29 04:35:47;;;;;;;1.80;1.70;;;;;;;6.87;100.00;101294.22;5046064;28;20453;-52
2022/04/29 04:38:14;;;;;;;0.30;0.20;;;;;;;6.86;100.00;101305.69;5062823;28;20951;-53
2022/04/29 04:40:42;;;;;;;0.30;0.20;;;;;;;6.98;100.00;101304.81;5068534;28;20471;-52
2022/04/29 04:43:16;;;;;;;0.30;0.20;;;;;;;7.11;100.00;101303.94;5069383;28;20530;-53
2022/04/29 04:45:42;;;;;;;3.33;2.37;;;;;;;7.26;100.00;101300.44;5064448;28;20499;-53
2022/04/29 04:48:09;;;;;;;0.93;0.93;;;;;;;7.37;100.00;101306.63;5062015;28;20450;-53
2022/04/29 04:50:36;;;;;;;0.30;0.20;;;;;;;7.42;100.00;101303.13;5066647;28;20486;-53
2022/04/29 04:53:02;;;;;;;0.30;0.20;;;;;;;7.58;100.00;101306.66;5069016;28;20822;-53
2022/04/29 04:55:29;;;;;;;0.57;0.57;;;;;;;7.49;100.00;101309.28;5056128;28;20520;-52
2022/04/29 04:57:56;;;;;;;2.87;1.73;;;;;;;8.06;100.00;101314.53;5069014;28;20480;-53
2022/04/29 05:00:22;;;;;;;0.30;0.20;;;;;;;8.33;100.00;101301.22;5064165;28;20535;-53
2022/04/29 05:02:49;;;;;;;0.30;0.20;;;;;;;8.54;100.00;101309.16;5061447;28;20519;-52
2022/04/29 05:05:16;;;;;;;0.30;0.20;;;;;;;8.35;100.00;101307.44;5064788;28;20809;-54
2022/04/29 05:07:42;;;;;;;0.40;0.40;;;;;;;8.20;100.00;101300.38;5068782;28;20536;-52
2022/04/29 05:10:10;;;;;;;5.50;1.47;;;;;;;8.39;100.00;101303.03;5064516;28;20998;-53
2022/04/29 05:12:45;;;;;;;0.30;0.20;;;;;;;8.36;100.00;101308.31;5061628;28;20503;-52
2022/04/29 05:15:14;;;;;;;0.40;0.30;;;;;;;8.35;100.00;101301.25;5064065;28;20478;-52
2022/04/29 05:17:41;;;;;;;0.30;0.30;;;;;;;8.47;100.00;101307.41;5068545;28;20949;-52
2022/04/29 05:20:12;;;;;;;1.47;1.43;;;;;;;8.42;100.00;101303.91;5066021;28;20470;-52
2022/04/29 05:22:39;;;;;;;0.30;0.20;;;;;;;8.47;100.00;101312.69;5060502;28;20532;-53
2022/04/29 05:25:06;;;;;;;0.30;0.20;;;;;;;8.55;100.00;101316.22;5069651;28;20450;-53
2022/04/29 05:27:33;;;;;;;0.30;0.20;;;;;;;8.53;100.00;101314.47;5061377;28;20454;-52
2022/04/29 05:30:00;;;;;;;2.10;1.80;;;;;;;8.43;100.00;101318.91;5062097;28;20466;-53
2022/04/29 05:32:34;;;;;;;0.40;0.40;;;;;;;8.56;100.00;101317.09;5042022;28;20447;-53
2022/04/29 05:35:01;;;;;;;0.30;0.20;;;;;;;8.55;100.00;101318.88;5068313;28;20495;-52
2022/04/29 05:37:28;;;;;;;0.30;0.20;;;;;;;8.72;100.00;101317.91;5061564;28;20445;-56
2022/04/29 05:42:52;;;;;;;0.30;0.20;;;;;;;8.82;100.00;101316.97;5019789;28;20480;-52
2022/04/29 05:45:19;;;;;;;2.10;1.23;;;;;;;8.85;100.00;101316.97;5061143;28;20511;-52
2022/04/29 05:47:46;;;;;;;0.30;0.20;;;;;;;8.76;100.00;101317.88;5061863;28;21001;-52
2022/04/29 05:50:12;;;;;;;4.53;1.90;;;;;;;8.74;100.00;101313.47;5067276;28;20475;-52
2022/04/29 05:52:39;;;;;;;0.30;0.20;;;;;;;8.81;100.00;101309.94;5066274;28;20442;-53
2022/04/29 05:55:06;;;;;;;0.30;0.20;;;;;;;8.79;100.00;101306.41;5055224;28;20443;-53
2022/04/29 05:57:33;;;;;;;1.70;1.70;;;;;;;8.99;100.00;101309.81;5066293;28;20458;-52
2022/04/29 05:59:59;;;;;;;0.40;0.30;;;;;;;8.92;100.00;101305.44;5067893;28;20467;-52
2022/04/29 06:02:27;;;;;;;0.30;0.20;;;;;;;9.05;100.00;101309.81;5055676;28;20490;-53
2022/04/29 06:04:53;;;;;;;0.30;0.20;;;;;;;9.19;100.00;101310.59;5067187;28;20450;-53
2022/04/29 06:07:20;;;;;;;0.30;0.20;;;;;;;9.12;100.00;101308.84;5067303;28;20479;-52
2022/04/29 06:09:47;;;;;;;0.40;0.30;;;;;;;9.18;100.00;101302.63;5060225;28;20474;-60
2022/04/29 06:12:13;;;;;;;0.33;0.27;;;;;;;9.35;100.00;101305.19;5060396;28;20445;-52
2022/04/29 06:14:41;;;;;;;0.40;0.30;;;;;;;9.38;100.00;101297.19;5066772;28;20956;-53
2022/04/29 06:17:08;;;;;;;0.40;0.30;;;;;;;9.62;100.00;101304.97;5066383;28;20878;-55
2022/04/29 06:19:34;;;;;;;0.30;0.20;;;;;;;9.87;100.00;101300.31;5060252;28;20492;-53
2022/04/29 06:22:02;;;;;;;0.40;0.30;;;;;;;9.96;99.48;101291.38;5059731;28;20481;-52
2022/04/29 06:24:28;;;;;;;0.40;0.33;;;;;;;10.07;99.32;101302.78;5067933;28;20450;-52
2022/04/29 06:26:55;;;;;;;0.30;0.20;;;;;;;10.12;98.91;101302.72;5059542;28;20446;-52
2022/04/29 06:29:21;;;;;;;0.30;0.20;;;;;;;10.06;99.26;101304.53;5065551;28;20846;-52
2022/04/29 06:31:53;;;;;;;0.73;0.73;;;;;;;10.31;99.49;101297.22;5066848;28;20474;-52
2022/04/29 06:34:20;;;;;;;0.30;0.20;;;;;;;10.44;98.08;101307.72;5060883;28;20495;-52
2022/04/29 06:36:47;;;;;;;0.30;0.20;;;;;;;10.50;97.60;101297.88;5059885;28;20500;-52
2022/04/29 06:39:13;;;;;;;0.37;0.27;;;;;;;10.55;97.91;101304.06;5064160;28;20530;-52
2022/04/29 06:41:41;;;;;;;0.30;0.30;;;;;;;10.64;97.45;101301.25;5066193;28;20511;-53
2022/04/29 06:44:08;;;;;;;0.30;0.20;;;;;;;11.30;94.25;101303.00;5062086;28;20494;-52
2022/04/29 06:46:35;;;;;;;0.30;0.20;;;;;;;10.83;94.52;101307.22;5059634;28;20462;-53
2022/04/29 06:49:02;;;;;;;0.30;0.20;;;;;;;10.52;96.15;101303.19;5062917;28;20476;-52
2022/04/29 06:51:28;;;;;;;0.30;0.20;;;;;;;10.59;95.45;101305.75;5065851;28;20485;-52
2022/04/29 06:53:55;;;;;;;0.30;0.20;;;;;;;10.86;94.69;101314.28;5054877;28;20485;-53
2022/04/29 06:56:22;;;;;;;1.47;1.40;;;;;;;11.14;94.32;101305.03;5052988;28;20501;-52
2022/04/29 06:58:49;;;;;;;0.30;0.20;;;;;;;11.25;92.38;101302.22;5061388;28;20453;-52
2022/04/29 07:01:17;;;;;;;6.03;2.87;;;;;;;11.18;93.83;101305.84;5057895;28;20475;-52
2022/04/29 07:03:45;;;;;;;3.33;3.13;;;;;;;11.36;93.85;101308.22;5062320;28;20551;-52
2022/04/29 07:06:11;;;;;;;0.40;0.33;;;;;;;11.56;92.51;101311.47;5059027;28;20450;-53
2022/04/29 07:08:38;;;;;;;0.30;0.20;;;;;;;11.71;91.64;101305.00;5061113;28;20482;-52
2022/04/29 07:11:05;;;;;;;0.30;0.20;;;;;;;11.49;92.35;101298.25;5055499;28;20542;-52
2022/04/29 07:13:32;;;;;;;1.60;1.40;;;;;;;12.04;91.30;101308.88;5061844;28;20814;-52
2022/04/29 07:15:59;;;;;;;0.50;0.50;;;;;;;12.15;89.94;101309.56;5055794;28;20449;-52
2022/04/29 07:18:26;;;;;;;0.30;0.20;;;;;;;11.92;90.44;101306.44;5061760;28;20505;-52
2022/04/29 07:20:52;;;;;;;0.90;0.90;;;;;;;11.74;91.24;101301.41;5061290;28;20510;-52
2022/04/29 07:23:19;;;;;;;0.30;0.20;;;;;;;11.85;91.55;101299.47;5051233;28;20490;-52
2022/04/29 07:25:50;;;;;;;0.77;0.77;;;;;;;12.06;91.24;101298.19;5060900;28;20459;-52
2022/04/29 07:28:17;;;;;;;0.40;0.40;;;;;;;12.17;89.43;101301.53;5055263;28;20793;-52
2022/04/29 07:30:44;;;;;;;0.40;0.30;;;;;;;12.64;87.44;101292.63;5035780;28;20476;-52
2022/04/29 07:33:10;;;;;;;0.30;0.20;;;;;;;12.68;85.68;101290.75;5043413;28;21006;-52
2022/04/29 07:43:52;;;;;;;0.70;0.70;;;;;;;12.57;89.13;101290.97;5065307;28;20544;-52
2022/04/29 07:46:21;;;;;;;0.97;0.70;;;;;;;12.78;87.19;101294.13;5064058;28;20450;-53
2022/04/29 07:48:48;;;;;;;0.40;0.30;;;;;;;13.14;85.24;101300.41;5058178;28;20466;-53
2022/04/29 07:51:15;;;;;;;0.30;0.20;;;;;;;13.19;85.52;101295.91;5059175;28;20490;-54
2022/04/29 07:53:41;;;;;;;1.70;1.60;;;;;;;13.03;84.44;101290.00;5065255;28;20866;-53
2022/04/29 07:56:08;;;;;;;0.30;0.20;;;;;;;13.15;83.68;101291.47;5052046;28;20450;-53
2022/04/29 07:58:34;;;;;;;0.97;0.97;;;;;;;13.88;81.99;101298.63;5064604;28;20501;-53
2022/04/29 08:01:01;;;;;;;1.17;0.60;;;;;;;13.40;82.67;101297.16;5064757;28;20470;-53
2022/04/29 08:03:35;;;;;;;4.00;1.60;;;;;;;13.58;83.62;101294.94;5059850;28;20493;-53
2022/04/29 08:06:07;;;;;;;0.30;0.20;;;;;;;13.98;83.68;101291.25;5058168;28;20482;-53
2022/04/29 08:08:35;;;;;;;0.97;0.97;;;;;;;14.07;82.86;101295.47;5062644;28;20493;-53
2022/04/29 08:11:02;;;;;;;1.40;1.40;;;;;;;14.08;82.59;101294.53;5064621;28;20523;-53
2022/04/29 08:13:28;;;;;;;0.70;0.70;;;;;;;14.46;80.36;101294.38;5061126;28;20450;-53
2022/04/29 08:15:55;;;;;;;0.40;0.30;;;;;;;14.74;79.77;101293.59;5057751;28;20527;-53
2022/04/29 08:18:23;;;;;;;0.40;0.40;;;;;;;14.25;80.05;101294.94;5062043;28;20530;-53
2022/04/29 08:20:49;;;;;;;1.07;1.07;;;;;;;14.36;80.59;101290.19;5064753;28;20467;-53
2022/04/29 08:23:16;;;;;;;4.37;1.23;;;;;;;14.15;79.52;101294.34;5058855;28;20539;-53
2022/04/29 08:25:42;;;;;;;0.30;0.20;;;;;;;14.34;79.83;101296.50;5064555;28;20450;-53
2022/04/29 08:28:09;;;;;;;0.83;0.83;;;;;;;14.37;80.12;101291.06;5061440;28;20445;-53
2022/04/29 08:30:36;;;;;;;0.93;0.80;;;;;;;14.87;80.63;101297.66;5057892;28;20815;-53
2022/04/29 08:33:03;;;;;;;0.30;0.20;;;;;;;15.14;77.95;101285.22;5061039;28;20475;-54
2022/04/29 08:35:30;;;;;;;0.30;0.20;;;;;;;15.11;77.02;101291.56;5064645;28;20959;-54
2022/04/29 08:37:57;;;;;;;0.30;0.20;;;;;;;15.66;76.41;101284.44;5061854;28;20453;-53
2022/04/29 08:40:25;;;;;;;1.67;1.57;;;;;;;15.30;76.55;101285.59;5057585;28;20466;-53
2022/04/29 08:42:53;;;;;;;0.30;0.20;;;;;;;15.62;76.28;101282.81;5059937;28;20555;-53
2022/04/29 08:45:20;;;;;;;0.50;0.50;;;;;;;15.83;75.97;101274.94;5064908;28;20450;-53
2022/04/29 08:47:47;;;;;;;1.03;1.03;;;;;;;16.34;73.79;101282.97;5063022;28;20476;-53
2022/04/29 08:50:19;;;;;;;0.40;0.30;;;;;;;16.07;75.72;101279.47;5057432;28;20521;-54
2022/04/29 08:52:48;;;;;;;0.30;0.20;;;;;;;15.80;75.52;101277.75;5058498;28;20447;-53
2022/04/29 09:00:46;;;;;;;0.40;0.37;;;;;;;16.30;74.80;101271.44;5066921;28;20461;-53
2022/04/29 09:03:23;;;;;;;1.17;1.17;;;;;;;16.00;75.46;101275.22;5061115;28;20994;-54
2022/04/29 09:05:50;;;;;;;0.37;0.30;;;;;;;16.24;74.19;101270.81;5061295;28;20452;-54
2022/04/29 09:08:20;;;;;;;0.47;0.40;;;;;;;16.65;75.65;101265.72;5067474;28;20446;-54
2022/04/29 09:10:58;;;;;;;0.30;0.20;;;;;;;16.44;74.22;101262.88;5067867;28;20553;-53
2022/04/29 09:13:30;;;;;;;2.93;2.73;;;;;;;16.90;73.87;101266.56;5063971;28;20453;-53
2022/04/29 09:16:00;;;;;;;1.00;0.67;;;;;;;16.70;73.94;101267.31;5061093;28;20453;-54
2022/04/29 09:18:43;;;;;;;0.40;0.20;;;;;;;16.86;73.50;101263.13;5063512;28;20448;-54
2022/04/29 09:21:16;;;;;;;0.70;0.70;;;;;;;17.19;73.17;101257.34;5048408;28;20923;-54
2022/04/29 09:23:54;;;;;;;1.17;1.07;;;;;;;17.31;71.44;101254.16;5060666;28;21007;-54
2022/04/29 09:26:21;;;;;;;0.47;0.40;;;;;;;17.37;70.42;101247.63;5064546;28;20482;-54
2022/04/29 09:28:49;;;;;;;0.30;0.20;;;;;;;17.15;70.48;101253.03;5067622;28;20489;-54
2022/04/29 09:31:16;;;;;;;0.83;0.83;;;;;;;16.92;72.38;101255.75;5063811;28;20592;-53
2022/04/29 09:33:57;;;;;;;0.40;0.30;;;;;;;17.01;71.71;101252.72;5060854;28;20449;-54
2022/04/29 09:36:26;;;;;;;0.40;0.30;;;;;;;17.15;70.24;101253.91;5062070;28;20451;-53
2022/04/29 09:42:14;;;;;;;0.47;0.40;;;;;;;17.12;71.25;101251.31;5067374;28;20469;-54
2022/04/29 09:44:40;;;;;;;0.60;0.60;;;;;;;16.94;72.54;101251.19;5067267;28;20994;-54
2022/04/29 09:47:21;;;;;;;0.40;0.20;;;;;;;17.84;70.56;101243.00;5047832;28;20545;-54
2022/04/29 09:49:58;;;;;;;0.50;0.50;;;;;;;17.75;69.66;101241.56;5059915;28;20481;-54
2022/04/29 09:52:30;;;;;;;0.40;0.30;;;;;;;18.37;68.87;101236.16;5063437;28;20442;-54
2022/04/29 09:55:17;;;;;;;1.13;1.13;;;;;;;17.84;69.68;101226.84;5055352;28;20439;-54
2022/04/29 09:57:59;;;;;;;9.83;1.07;;;;;;;17.97;69.58;101228.06;5066781;28;20473;-55
2022/04/29 10:00:26;;;;;;;1.40;1.30;;;;;;;18.12;70.09;101229.19;5062945;28;20489;-54
2022/04/29 10:02:53;;;;;;;0.40;0.20;;;;;;;18.46;68.39;101222.25;5060060;28;20527;-54
2022/04/29 10:05:20;;;;;;;1.07;1.07;;;;;;;18.44;68.14;101216.94;5063491;28;20447;-54
2022/04/29 10:07:49;;;;;;;0.93;0.93;;;;;;;18.79;64.79;101217.16;5066702;28;20450;-54
2022/04/29 10:10:17;;;;;;;0.50;0.50;;;;;;;18.73;65.43;101209.34;5063397;28;20465;-54
2022/04/29 10:12:48;;;;;;;0.93;0.93;;;;;;;18.80;64.57;101222.47;5059636;28;20442;-54
2022/04/29 10:15:18;;;;;;;1.03;1.03;;;;;;;19.00;65.00;101210.72;5061899;28;20505;-54
2022/04/29 10:23:18;;;;;;;0.73;0.73;;;;;;;19.28;62.67;101202.13;5061362;28;20490;-54
2022/04/29 10:25:46;;;;;;;2.63;2.00;;;;;;;19.59;63.01;101197.91;5066268;28;20521;-54
2022/04/29 10:28:20;;;;;;;0.73;0.73;;;;;;;19.38;62.57;101195.34;5064957;28;20481;-54
2022/04/29 10:31:02;;;;;;;0.40;0.20;;;;;;;19.26;64.32;101201.34;5059776;28;20466;-53
2022/04/29 10:33:29;;;;;;;2.10;1.50;;;;;;;19.10;65.92;101200.38;5059471;28;20504;-54
2022/04/29 10:35:56;;;;;;;0.50;0.50;;;;;;;19.42;66.74;101193.34;5064954;28;20509;-54
2022/04/29 10:38:26;;;;;;;0.67;0.67;;;;;;;19.46;66.56;101194.94;5066252;28;20795;-54
2022/04/29 10:41:25;;;;;;;0.63;0.57;;;;;;;18.92;66.68;101200.34;5061385;28;20867;-54
2022/04/29 10:43:51;;;;;;;0.40;0.30;;;;;;;18.96;65.29;101198.34;5065592;28;20486;-54
2022/04/29 10:46:31;;;;;;;2.50;1.13;;;;;;;18.97;65.82;101193.84;5066120;28;20450;-54
2022/04/29 10:49:17;;;;;;;1.20;1.20;;;;;;;19.01;65.16;101187.34;5061305;28;20461;-54
2022/04/29 10:51:49;;;;;;;6.13;2.33;;;;;;;19.37;63.53;101181.94;5058797;28;20442;-54
2022/04/29 10:54:41;;;;;;;0.53;0.53;;;;;;;19.70;63.22;101187.44;5059948;28;20500;-54
2022/04/29 10:57:15;;;;;;;1.57;1.57;;;;;;;19.78;63.20;101190.63;5061203;28;20480;-54
2022/04/29 11:00:00;;;;;;;0.73;0.73;;;;;;;19.29;63.32;101184.13;5058578;28;20462;-54
2022/04/29 11:02:31;;;;;;;0.67;0.67;;;;;;;20.17;62.00;101184.06;5059700;28;20451;-54
2022/04/29 11:05:00;;;;;;;0.50;0.50;;;;;;;19.86;63.00;101184.81;5065497;28;20490;-54
2022/04/29 11:07:42;;;;;;;0.60;0.60;;;;;;;20.03;62.91;101183.00;5065502;28;20446;-55
2022/04/29 11:10:20;;;;;;;0.40;0.30;;;;;;;20.35;61.33;101172.25;5060884;28;20462;-53
2022/04/29 11:12:58;;;;;;;3.37;3.07;;;;;;;20.13;59.38;101167.16;5058554;28;20445;-54
2022/04/29 11:15:40;;;;;;;0.50;0.47;;;;;;;19.75;59.08;101167.38;5059570;28;21021;-54
2022/04/29 11:18:33;;;;;;;0.40;0.37;;;;;;;20.18;58.70;101164.22;5064364;28;20451;-54
2022/04/29 11:24:40;;;;;;;0.40;0.20;;;;;;;20.15;59.16;101159.88;5056204;28;20574;-54
2022/04/29 11:26:49;;;;;;;0.40;0.27;;;;;;;20.05;58.71;101161.31;5059545;28;20951;-53
2022/04/29 11:29:19;;;;;;;4.90;1.80;;;;;;;20.20;58.22;101155.06;5064971;28;20571;-54
2022/04/29 11:31:46;;;;;;;0.40;0.20;;;;;;;20.33;56.59;101142.63;5065057;28;20453;-54
2022/04/29 11:34:14;;;;;;;0.50;0.30;;;;;;;20.35;56.05;101151.53;5058562;28;20446;-54
2022/04/29 11:36:43;;;;;;;0.60;0.60;;;;;;;20.35;55.06;101148.81;5058226;28;20884;-54
2022/04/29 11:39:17;;;;;;;0.40;0.33;;;;;;;19.98;54.64;101140.97;5064068;28;20458;-54
2022/04/29 11:41:58;;;;;;;0.40;0.20;;;;;;;19.91;55.36;101143.16;5065309;28;20976;-54
2022/04/29 11:44:42;;;;;;;1.07;0.40;;;;;;;19.85;49.98;101142.59;5062081;28;20985;-54
2022/04/29 11:47:09;;;;;;;0.40;0.20;;;;;;;20.25;49.67;101133.22;5058030;28;20484;-54
2022/04/29 11:49:36;;;;;;;0.50;0.40;;;;;;;20.19;48.23;101129.03;5058555;28;20483;-54
2022/04/29 11:52:22;;;;;;;0.40;0.30;;;;;;;20.19;45.99;101128.16;5064976;28;20496;-54
2022/04/29 11:54:54;;;;;;;0.43;0.40;;;;;;;20.21;46.26;101132.50;5051920;28;20994;-54
2022/04/29 11:57:22;;;;;;;0.40;0.20;;;;;;;20.52;48.41;101125.44;5062360;28;20793;-53
2022/04/29 11:59:49;;;;;;;0.40;0.40;;;;;;;20.72;47.52;101116.22;5057902;28;20474;-54
2022/04/29 12:02:17;;;;;;;0.50;0.47;;;;;;;21.00;45.97;101116.34;5060579;28;20504;-53
2022/04/29 12:05:05;;;;;;;0.60;0.60;;;;;;;20.97;46.37;101116.53;5055834;28;20489;-54
2022/04/29 12:07:40;;;;;;;0.40;0.30;;;;;;;20.47;45.81;101124.81;5058305;28;20542;-54